Time;durP1;ratioP1;P1;durP2;ratioP2;P2;SDS_P1;SDS_P2;PMS_P1;PMS_P2;Temp;Humidity;BMP_temperature;BMP_pressure;BME280_temperature;BME280_humidity;BME280_pressure;Samples;Min_cycle;Max_cycle;Signal;HPM_P1;HPM_P2
2022/12/07 00:01:41;;;;;;;25.20;17.23;;;8.10;99.90;;;;;;5002939;28;20046;-81
2022/12/07 00:04:11;;;;;;;24.08;16.23;;;8.10;99.90;;;;;;5006534;28;20045;-81
2022/12/07 00:06:39;;;;;;;23.90;16.83;;;8.10;99.90;;;;;;5013059;28;20049;-80
2022/12/07 00:09:07;;;;;;;22.80;16.20;;;8.10;99.90;;;;;;5024448;28;20037;-80
2022/12/07 00:11:35;;;;;;;24.55;16.95;;;8.20;99.90;;;;;;5008295;28;20518;-80
2022/12/07 00:14:06;;;;;;;22.70;16.35;;;8.10;99.90;;;;;;5009370;28;20037;-81
2022/12/07 00:16:34;;;;;;;26.15;17.05;;;8.10;99.90;;;;;;5009168;28;20400;-81
2022/12/07 00:19:01;;;;;;;25.98;15.98;;;8.10;99.90;;;;;;5001870;28;20066;-81
2022/12/07 00:21:29;;;;;;;27.13;16.30;;;8.10;99.90;;;;;;4996384;28;20046;-81
2022/12/07 00:23:57;;;;;;;27.70;17.15;;;8.20;99.90;;;;;;5000103;28;20034;-81
2022/12/07 00:26:25;;;;;;;24.55;17.13;;;8.20;99.90;;;;;;5004014;28;20113;-80
2022/12/07 00:28:54;;;;;;;25.38;17.73;;;8.20;99.90;;;;;;5009043;28;20056;-81
2022/12/07 00:31:24;;;;;;;28.33;17.98;;;8.20;99.90;;;;;;4995131;28;20042;-81
2022/12/07 00:33:51;;;;;;;26.75;18.92;;;8.20;99.90;;;;;;4995106;28;20042;-81
2022/12/07 00:36:21;;;;;;;32.67;19.08;;;8.20;99.90;;;;;;4999862;28;20046;-81
2022/12/07 00:38:48;;;;;;;28.25;19.02;;;8.20;99.90;;;;;;5014525;28;20344;-81
2022/12/07 00:41:16;;;;;;;30.15;20.30;;;8.20;99.90;;;;;;5025066;28;20049;-81
2022/12/07 00:43:44;;;;;;;31.05;19.83;;;8.20;99.90;;;;;;5022689;28;20046;-81
2022/12/07 00:46:11;;;;;;;31.80;20.52;;;8.30;99.90;;;;;;5020294;28;20041;-81
2022/12/07 00:48:39;;;;;;;31.17;21.35;;;8.20;99.90;;;;;;5016153;28;20057;-80
2022/12/07 00:51:06;;;;;;;32.65;21.95;;;8.20;99.90;;;;;;4990327;28;20061;-81
2022/12/07 00:53:35;;;;;;;31.75;22.33;;;8.20;99.90;;;;;;5003843;28;20046;-81
2022/12/07 00:56:06;;;;;;;33.35;22.30;;;8.20;99.90;;;;;;5009439;28;20038;-81
2022/12/07 00:58:33;;;;;;;34.45;23.10;;;8.20;99.90;;;;;;5009199;28;20052;-81
2022/12/07 01:01:01;;;;;;;31.15;22.70;;;8.20;99.90;;;;;;5019461;28;20048;-80
2022/12/07 01:03:28;;;;;;;35.67;23.02;;;8.20;99.90;;;;;;5009430;28;20038;-80
2022/12/07 01:05:57;;;;;;;35.53;24.20;;;8.20;99.90;;;;;;5027688;28;20055;-81
2022/12/07 01:08:25;;;;;;;31.45;21.85;;;8.20;99.90;;;;;;5000152;28;20089;-81
2022/12/07 01:10:59;;;;;;;33.40;24.20;;;8.20;99.90;;;;;;5016264;28;20103;-81
2022/12/07 01:13:26;;;;;;;34.28;23.13;;;8.20;99.90;;;;;;5006897;28;20111;-80
2022/12/07 01:15:52;;;;;;;37.78;24.15;;;8.20;99.90;;;;;;5027408;28;20045;-81
2022/12/07 01:18:19;;;;;;;37.58;23.52;;;8.20;99.90;;;;;;5021073;28;20410;-81
2022/12/07 01:20:46;;;;;;;39.50;26.80;;;8.20;99.90;;;;;;5009752;28;20429;-81
2022/12/07 01:23:14;;;;;;;36.38;25.40;;;8.20;99.90;;;;;;5007501;28;20046;-81
2022/12/07 01:25:45;;;;;;;39.15;25.17;;;8.20;99.90;;;;;;5004481;28;20034;-81
2022/12/07 01:28:12;;;;;;;39.38;26.05;;;8.20;99.90;;;;;;5019570;28;20085;-81
2022/12/07 01:30:39;;;;;;;38.42;26.42;;;8.20;99.90;;;;;;5019843;28;20050;-81
2022/12/07 01:33:06;;;;;;;41.75;27.52;;;8.20;99.90;;;;;;5009705;28;20049;-80
2022/12/07 01:35:34;;;;;;;41.78;26.75;;;8.20;99.90;;;;;;5024724;28;20037;-81
2022/12/07 01:38:01;;;;;;;46.45;28.42;;;8.20;99.90;;;;;;5010992;28;20042;-81
2022/12/07 01:40:30;;;;;;;41.88;28.35;;;8.20;99.90;;;;;;5013458;28;20049;-81
2022/12/07 01:42:57;;;;;;;42.83;28.17;;;8.20;99.90;;;;;;5012286;28;20499;-81
2022/12/07 01:45:40;;;;;;;44.50;28.02;;;8.30;99.90;;;;;;5020127;28;20045;-80
2022/12/07 01:48:08;;;;;;;46.85;28.45;;;8.20;99.90;;;;;;5034520;28;20030;-83
2022/12/07 01:50:36;;;;;;;46.75;29.45;;;8.30;99.90;;;;;;5005358;23;20126;-78
2022/12/07 01:53:05;;;;;;;43.85;28.75;;;8.20;99.90;;;;;;4988617;28;20042;-78
2022/12/07 01:55:34;;;;;;;43.97;27.63;;;8.20;99.90;;;;;;4991940;28;20503;-78
2022/12/07 01:58:01;;;;;;;43.63;28.02;;;8.20;99.90;;;;;;4989260;28;20046;-78
2022/12/07 02:00:28;;;;;;;42.65;28.35;;;8.20;99.90;;;;;;4987559;28;20054;-78
2022/12/07 02:02:58;;;;;;;44.97;27.10;;;8.20;99.90;;;;;;4993835;28;20039;-78
2022/12/07 02:05:26;;;;;;;41.63;25.60;;;8.20;99.90;;;;;;4998817;28;20045;-78
2022/12/07 02:07:55;;;;;;;42.88;26.80;;;8.20;99.90;;;;;;4990745;28;20050;-78
2022/12/07 02:10:24;;;;;;;45.55;28.20;;;8.20;99.90;;;;;;4989652;28;20049;-78
2022/12/07 02:12:56;;;;;;;40.85;26.85;;;8.20;99.90;;;;;;4991971;28;20045;-78
2022/12/07 02:15:28;;;;;;;41.65;28.10;;;8.20;99.90;;;;;;4998686;28;20046;-78
2022/12/07 02:18:01;;;;;;;44.20;28.05;;;8.20;99.90;;;;;;4993907;28;20048;-78
2022/12/07 02:20:31;;;;;;;48.33;28.65;;;8.20;99.90;;;;;;4999348;28;20046;-78
2022/12/07 02:24:01;;;;;;;44.15;26.98;;;8.20;99.90;;;;;;5002415;28;20519;-78
2022/12/07 02:26:52;;;;;;;49.65;28.27;;;8.20;99.90;;;;;;4961174;28;20066;-78
2022/12/07 02:29:23;;;;;;;46.78;28.63;;;8.20;99.90;;;;;;5008798;28;20055;-78
2022/12/07 02:31:57;;;;;;;47.00;27.90;;;8.20;99.90;;;;;;4995858;28;20051;-78
2022/12/07 02:34:30;;;;;;;46.80;28.42;;;8.20;99.90;;;;;;5004188;28;20522;-78
2022/12/07 02:37:01;;;;;;;45.45;28.48;;;8.20;99.90;;;;;;4999505;28;20074;-78
2022/12/07 02:39:29;;;;;;;;;;;8.20;99.90;;;;;;5008406;28;20054;-78
2022/12/07 02:41:59;;;;;;;43.50;26.85;;;8.20;99.90;;;;;;4998290;28;19929;-78
2022/12/07 02:44:28;;;;;;;47.33;28.33;;;8.20;99.90;;;;;;5003277;28;20144;-78
2022/12/07 02:46:59;;;;;;;49.47;27.88;;;8.20;99.90;;;;;;4991829;28;20046;-78
2022/12/07 02:49:27;;;;;;;44.30;27.90;;;8.20;99.90;;;;;;4990683;28;20414;-78
2022/12/07 02:51:54;;;;;;;46.00;27.20;;;8.10;99.90;;;;;;4999275;28;20514;-78
2022/12/07 02:54:22;;;;;;;46.42;27.17;;;8.10;99.90;;;;;;4993131;28;20038;-78
2022/12/07 02:56:52;;;;;;;44.33;27.77;;;8.10;99.90;;;;;;4988774;28;20074;-78
2022/12/07 02:59:26;;;;;;;41.67;25.88;;;8.10;99.90;;;;;;4991627;28;20051;-78
2022/12/07 03:02:00;;;;;;;41.95;25.27;;;8.10;99.90;;;;;;4990759;28;20050;-78
2022/12/07 03:04:35;;;;;;;41.88;24.75;;;8.10;99.90;;;;;;5000301;28;20042;-78
2022/12/07 03:07:07;;;;;;;39.83;24.33;;;8.10;99.90;;;;;;4993959;28;20049;-78
2022/12/07 03:09:38;;;;;;;41.97;24.73;;;8.10;99.90;;;;;;5000928;28;20057;-78
2022/12/07 03:12:09;;;;;;;39.20;23.85;;;8.10;99.90;;;;;;4984582;28;20047;-78
2022/12/07 03:14:39;;;;;;;42.03;25.10;;;8.10;99.90;;;;;;4987975;28;20034;-78
2022/12/07 03:17:11;;;;;;;40.60;24.77;;;8.10;99.90;;;;;;4993768;28;20056;-78
2022/12/07 03:19:37;;;;;;;;;;;8.00;99.90;;;;;;5003606;28;20080;-78
2022/12/07 03:22:08;;;;;;;43.47;24.20;;;8.00;99.90;;;;;;4996475;28;19922;-78
2022/12/07 03:24:37;;;;;;;43.13;25.88;;;8.00;99.90;;;;;;4989460;28;20092;-78
2022/12/07 03:27:07;;;;;;;42.38;24.67;;;7.90;99.90;;;;;;5006805;28;20044;-78
2022/12/07 03:29:37;;;;;;;45.60;27.27;;;8.00;99.90;;;;;;5003360;28;20038;-78
2022/12/07 03:32:09;;;;;;;43.90;26.20;;;7.90;99.90;;;;;;4998241;28;20041;-78
2022/12/07 03:34:41;;;;;;;40.83;26.13;;;7.90;99.90;;;;;;4991046;28;20109;-78
2022/12/07 03:37:13;;;;;;;43.08;26.70;;;7.90;99.90;;;;;;4994398;28;20046;-78
2022/12/07 03:39:45;;;;;;;44.35;25.90;;;7.90;99.90;;;;;;5002087;28;20042;-78
2022/12/07 03:42:12;;;;;;;43.50;26.20;;;7.80;99.90;;;;;;4990378;28;20046;-78
2022/12/07 03:44:39;;;;;;;44.88;25.58;;;7.80;99.90;;;;;;4997262;28;20507;-78
2022/12/07 03:47:13;;;;;;;47.58;28.15;;;7.80;99.90;;;;;;5019111;28;20046;-78
2022/12/07 03:49:45;;;;;;;48.65;28.17;;;7.80;99.90;;;;;;4998724;28;20054;-78
2022/12/07 03:52:17;;;;;;;51.63;28.33;;;7.90;99.90;;;;;;4989584;28;20038;-78
2022/12/07 03:54:48;;;;;;;47.45;28.73;;;7.90;99.90;;;;;;4990760;28;20093;-78
2022/12/07 03:57:15;;;;;;;43.20;27.17;;;7.90;99.90;;;;;;4996824;28;20042;-78
2022/12/07 03:59:43;;;;;;;50.22;28.00;;;7.80;99.90;;;;;;5000902;28;20038;-78
2022/12/07 04:02:13;;;;;;;52.22;28.42;;;7.80;99.90;;;;;;4988549;28;20038;-78
2022/12/07 04:04:41;;;;;;;59.58;30.60;;;7.80;99.90;;;;;;4990391;28;20143;-78
2022/12/07 04:07:08;;;;;;;50.55;29.27;;;7.80;99.90;;;;;;4997225;28;20060;-78
2022/12/07 04:09:35;;;;;;;53.33;28.83;;;7.90;99.90;;;;;;5005037;28;20092;-78
2022/12/07 04:12:02;;;;;;;52.15;30.20;;;7.90;99.90;;;;;;4998179;28;20587;-78
2022/12/07 04:14:28;;;;;;;51.60;29.52;;;7.80;99.90;;;;;;4990427;28;20046;-78
2022/12/07 04:16:57;;;;;;;51.33;28.02;;;7.80;99.90;;;;;;4993886;28;20042;-78
2022/12/07 04:19:28;;;;;;;52.22;30.02;;;7.80;99.90;;;;;;5010331;28;20056;-78
2022/12/07 04:21:55;;;;;;;47.00;27.55;;;7.80;99.90;;;;;;4991082;28;20057;-78
2022/12/07 04:24:22;;;;;;;48.38;26.83;;;7.80;99.90;;;;;;5009775;28;20046;-78
2022/12/07 04:26:49;;;;;;;44.53;25.58;;;7.80;99.90;;;;;;5013895;28;20049;-78
2022/12/07 04:29:16;;;;;;;46.72;25.25;;;7.70;99.90;;;;;;4986861;28;20050;-78
2022/12/07 04:31:43;;;;;;;43.80;25.60;;;7.70;99.90;;;;;;4987960;28;20495;-78
2022/12/07 04:34:11;;;;;;;40.08;23.42;;;7.70;99.90;;;;;;5009422;28;20054;-78
2022/12/07 04:36:39;;;;;;;43.60;23.70;;;7.70;99.90;;;;;;5010097;28;20491;-78
2022/12/07 04:39:08;;;;;;;40.65;23.95;;;7.70;99.90;;;;;;4990233;28;20508;-78
2022/12/07 04:41:35;;;;;;;35.50;21.92;;;7.70;99.90;;;;;;4988755;28;20038;-78
2022/12/07 04:44:07;;;;;;;36.90;22.05;;;7.70;99.90;;;;;;5009058;28;20506;-78
2022/12/07 04:46:34;;;;;;;36.78;22.35;;;7.70;99.90;;;;;;4994826;28;20131;-78
2022/12/07 04:49:01;;;;;;;37.17;22.45;;;7.60;99.90;;;;;;4996581;28;20268;-78
2022/12/07 04:51:29;;;;;;;35.45;21.42;;;7.60;99.90;;;;;;4995213;28;20045;-78
2022/12/07 04:53:58;;;;;;;34.92;21.83;;;7.60;99.90;;;;;;5002037;28;20046;-78
2022/12/07 04:56:25;;;;;;;37.28;22.70;;;7.60;99.90;;;;;;4994411;28;20499;-78
2022/12/07 04:58:54;;;;;;;36.25;21.63;;;7.60;99.90;;;;;;4989856;28;20050;-78
2022/12/07 05:01:22;;;;;;;36.05;21.15;;;7.60;99.90;;;;;;4988287;28;20050;-79
2022/12/07 05:03:49;;;;;;;35.88;21.98;;;7.60;99.90;;;;;;5000286;28;20038;-78
2022/12/07 05:06:16;;;;;;;31.98;20.60;;;7.60;99.90;;;;;;4997633;28;20410;-78
2022/12/07 05:08:43;;;;;;;33.13;20.27;;;7.60;99.90;;;;;;4986955;28;20418;-80
2022/12/07 05:11:37;;;;;;;34.42;20.90;;;7.60;99.90;;;;;;4995130;28;20038;-79
2022/12/07 05:13:59;;;;;;;36.42;20.67;;;7.50;99.90;;;;;;4988681;28;20069;-80
2022/12/07 05:16:26;;;;;;;37.35;21.98;;;7.50;99.90;;;;;;4989192;28;20038;-78
2022/12/07 05:18:53;;;;;;;42.17;21.90;;;7.50;99.90;;;;;;4989551;28;20133;-78
2022/12/07 05:21:20;;;;;;;37.55;20.83;;;7.50;99.90;;;;;;5000371;28;20061;-79
2022/12/07 05:23:47;;;;;;;35.40;20.95;;;7.50;99.90;;;;;;4986250;28;20038;-78
2022/12/07 05:26:15;;;;;;;37.25;20.90;;;7.50;99.90;;;;;;4989308;28;20031;-78
2022/12/07 05:28:42;;;;;;;35.17;21.08;;;7.50;99.90;;;;;;4988225;28;20414;-78
2022/12/07 05:31:09;;;;;;;30.73;19.98;;;7.50;99.90;;;;;;5002118;28;20113;-78
2022/12/07 05:33:36;;;;;;;36.80;21.05;;;7.50;99.90;;;;;;5008848;28;20045;-78
2022/12/07 05:36:05;;;;;;;36.65;19.80;;;7.50;99.90;;;;;;4991486;28;20038;-78
2022/12/07 05:38:32;;;;;;;33.95;19.55;;;7.50;99.90;;;;;;4987772;28;20046;-78
2022/12/07 05:41:02;;;;;;;36.08;19.55;;;7.50;99.90;;;;;;4996151;28;20057;-79
2022/12/07 05:43:30;;;;;;;31.38;19.15;;;7.50;99.90;;;;;;5017512;28;20282;-78
2022/12/07 05:45:58;;;;;;;32.05;18.20;;;7.50;99.90;;;;;;4994109;28;20061;-79
2022/12/07 05:48:25;;;;;;;30.23;18.67;;;7.50;99.90;;;;;;4990039;28;20072;-79
2022/12/07 05:50:52;;;;;;;30.98;18.17;;;7.50;99.90;;;;;;5004771;28;20498;-79
2022/12/07 05:53:19;;;;;;;35.15;18.33;;;7.50;99.90;;;;;;4994375;28;20042;-79
2022/12/07 05:55:46;;;;;;;32.92;18.63;;;7.60;99.90;;;;;;4993531;28;20045;-78
2022/12/07 06:00:58;;;;;;;33.75;17.52;;;7.60;99.90;;;;;;5006883;28;20057;-78
2022/12/07 06:03:25;;;;;;;30.17;18.13;;;7.50;99.90;;;;;;5001850;28;20049;-78
2022/12/07 06:05:53;;;;;;;28.77;17.25;;;7.50;99.90;;;;;;4992056;28;20050;-79
2022/12/07 06:08:20;;;;;;;32.03;16.08;;;7.50;99.90;;;;;;4991819;28;20125;-78
2022/12/07 06:12:33;;;;;;;28.75;15.85;;;7.50;99.90;;;;;;5005442;28;20038;-79
2022/12/07 06:13:34;;;;;;;26.80;14.35;;;7.50;99.90;;;;;;5002767;28;20041;-78
2022/12/07 06:16:02;;;;;;;24.77;15.20;;;7.50;99.90;;;;;;4991486;28;20093;-78
2022/12/07 06:18:29;;;;;;;24.50;13.95;;;7.50;99.90;;;;;;4988222;28;20050;-79
2022/12/07 06:20:56;;;;;;;29.58;14.93;;;7.50;99.90;;;;;;5000968;28;20041;-79
2022/12/07 06:23:23;;;;;;;21.75;13.57;;;7.50;99.90;;;;;;4996591;28;20050;-80
2022/12/07 06:25:50;;;;;;;23.98;14.40;;;7.50;99.90;;;;;;4990860;28;20076;-77
2022/12/07 06:28:17;;;;;;;23.63;12.73;;;7.50;99.90;;;;;;5000360;28;20042;-78
2022/12/07 06:30:44;;;;;;;21.42;12.95;;;7.50;99.90;;;;;;4990789;28;20046;-77
2022/12/07 06:33:12;;;;;;;25.65;14.32;;;7.50;99.90;;;;;;4990170;28;20054;-79
2022/12/07 06:35:39;;;;;;;26.73;13.48;;;7.50;99.90;;;;;;4990327;28;20042;-79
2022/12/07 06:38:06;;;;;;;27.75;13.45;;;7.50;99.90;;;;;;5002898;28;20038;-79
2022/12/07 06:40:32;;;;;;;26.80;12.90;;;7.40;99.90;;;;;;4992262;28;20052;-79
2022/12/07 06:42:59;;;;;;;31.75;14.52;;;7.50;99.90;;;;;;4995135;28;20046;-79
2022/12/07 06:45:26;;;;;;;22.20;13.50;;;7.50;99.90;;;;;;4990227;28;20467;-79
2022/12/07 06:47:53;;;;;;;24.20;12.60;;;7.50;99.90;;;;;;4989950;28;20048;-79
2022/12/07 06:50:22;;;;;;;23.02;12.98;;;7.40;99.90;;;;;;4989098;28;20053;-79
2022/12/07 06:52:48;;;;;;;19.90;12.27;;;7.40;99.90;;;;;;4986881;28;20038;-79
2022/12/07 06:55:15;;;;;;;25.52;12.70;;;7.40;99.90;;;;;;5011238;28;20168;-79
2022/12/07 06:57:42;;;;;;;22.40;14.02;;;7.40;99.90;;;;;;4994475;28;20133;-79
2022/12/07 07:00:10;;;;;;;22.95;13.40;;;7.40;99.90;;;;;;4991946;28;20076;-79
2022/12/07 07:02:37;;;;;;;25.50;13.50;;;7.40;99.90;;;;;;4990941;28;20042;-78
2022/12/07 07:05:04;;;;;;;22.05;13.25;;;7.40;99.90;;;;;;4988585;28;20045;-79
2022/12/07 07:07:33;;;;;;;19.75;12.27;;;7.50;99.90;;;;;;4989403;28;20474;-79
2022/12/07 07:10:00;;;;;;;21.92;11.60;;;7.50;99.90;;;;;;4982791;28;20060;-79
2022/12/07 07:12:27;;;;;;;24.00;12.40;;;7.40;99.90;;;;;;4991057;28;20072;-79
2022/12/07 07:14:53;;;;;;;22.52;11.25;;;7.40;99.90;;;;;;4992530;28;20038;-79
2022/12/07 07:17:20;;;;;;;21.42;11.57;;;7.50;99.90;;;;;;5005449;28;20089;-78
2022/12/07 07:19:47;;;;;;;19.30;11.35;;;7.40;99.90;;;;;;4990180;28;20050;-79
2022/12/07 07:22:14;;;;;;;26.27;11.82;;;7.40;99.90;;;;;;4990260;28;20044;-79
2022/12/07 07:24:42;;;;;;;24.23;12.63;;;7.40;99.90;;;;;;4992979;28;20043;-79
2022/12/07 07:27:09;;;;;;;26.33;13.02;;;7.40;99.90;;;;;;4999057;28;20364;-79
2022/12/07 07:29:36;;;;;;;21.88;11.82;;;7.30;99.90;;;;;;4988802;28;20050;-79
2022/12/07 07:32:03;;;;;;;24.50;11.77;;;7.30;99.90;;;;;;4990388;28;20050;-79
2022/12/07 07:34:30;;;;;;;22.95;12.25;;;7.30;99.90;;;;;;4991670;28;20042;-79
2022/12/07 07:36:57;;;;;;;18.33;11.15;;;7.30;99.90;;;;;;5010029;28;20050;-79
2022/12/07 07:39:24;;;;;;;24.35;11.68;;;7.30;99.90;;;;;;4990569;28;20061;-78
2022/12/07 07:41:52;;;;;;;20.35;11.52;;;7.20;99.90;;;;;;4991392;28;20070;-78
2022/12/07 07:44:25;;;;;;;24.55;12.18;;;7.20;99.90;;;;;;5008927;28;20041;-78
2022/12/07 07:46:52;;;;;;;19.70;11.63;;;7.20;99.90;;;;;;4992459;28;20038;-81
2022/12/07 07:49:19;;;;;;;24.98;12.18;;;7.30;99.90;;;;;;5007050;23;20056;-80
2022/12/07 07:51:46;;;;;;;21.10;11.98;;;7.20;99.90;;;;;;5039808;28;20145;-80
2022/12/07 07:54:13;;;;;;;26.17;11.30;;;7.30;99.90;;;;;;5024665;28;20041;-80
2022/12/07 07:56:40;;;;;;;23.98;14.27;;;7.30;99.90;;;;;;5026991;28;20037;-79
2022/12/07 07:59:08;;;;;;;26.48;13.65;;;7.30;99.90;;;;;;5027929;28;20453;-79
2022/12/07 08:01:35;;;;;;;24.73;12.60;;;7.30;99.90;;;;;;5018214;28;20042;-79
2022/12/07 08:04:02;;;;;;;23.23;11.50;;;7.30;99.90;;;;;;5026133;28;20051;-80
2022/12/07 08:06:29;;;;;;;22.38;11.70;;;7.30;99.90;;;;;;5028106;28;20045;-80
2022/12/07 08:08:57;;;;;;;21.95;11.73;;;7.30;99.90;;;;;;5025682;28;20041;-79
2022/12/07 08:11:25;;;;;;;22.90;11.63;;;7.30;99.90;;;;;;5021003;28;20120;-80
2022/12/07 08:13:51;;;;;;;21.13;10.95;;;7.30;99.90;;;;;;5018490;28;20113;-79
2022/12/07 08:16:20;;;;;;;18.33;10.02;;;7.30;99.90;;;;;;5024906;28;20037;-79
2022/12/07 08:18:47;;;;;;;21.17;10.88;;;7.40;99.90;;;;;;5019049;28;20037;-79
2022/12/07 08:21:15;;;;;;;21.33;10.88;;;7.40;99.90;;;;;;5022437;28;20049;-79
2022/12/07 08:23:42;;;;;;;21.90;10.38;;;7.40;99.90;;;;;;5017133;28;20051;-79
2022/12/07 08:26:11;;;;;;;19.17;10.48;;;7.40;99.90;;;;;;5023248;28;20045;-80
2022/12/07 08:28:38;;;;;;;23.98;11.15;;;7.40;99.90;;;;;;5023519;28;20045;-79
2022/12/07 08:31:06;;;;;;;18.70;10.73;;;7.40;99.90;;;;;;5010661;28;20474;-80
2022/12/07 08:33:35;;;;;;;17.52;10.85;;;7.50;99.90;;;;;;5022172;28;20120;-79
2022/12/07 08:36:06;;;;;;;22.92;11.75;;;7.50;99.90;;;;;;5027799;28;20049;-79
2022/12/07 08:38:37;;;;;;;22.67;11.10;;;7.50;99.90;;;;;;5019329;28;20054;-79
2022/12/07 08:41:05;;;;;;;24.55;11.75;;;7.50;99.90;;;;;;5022851;28;20091;-79
2022/12/07 08:43:32;;;;;;;18.02;10.48;;;7.50;99.90;;;;;;5022870;28;20406;-79
2022/12/07 08:46:05;;;;;;;16.23;10.73;;;7.60;99.90;;;;;;5032078;28;20060;-80
2022/12/07 08:48:32;;;;;;;18.90;10.02;;;7.60;99.90;;;;;;5042077;28;20394;-79
2022/12/07 08:51:02;;;;;;;23.00;10.63;;;7.60;99.90;;;;;;5048703;28;20049;-79
2022/12/07 08:53:29;;;;;;;21.77;10.65;;;7.60;99.90;;;;;;5031737;28;20136;-80
2022/12/07 08:55:57;;;;;;;22.80;11.23;;;7.60;99.90;;;;;;5030145;28;20033;-79
2022/12/07 08:58:24;;;;;;;17.23;10.43;;;7.60;99.90;;;;;;5038603;28;20540;-79
2022/12/07 09:00:51;;;;;;;16.63;9.57;;;7.60;99.90;;;;;;5026741;28;20497;-80
2022/12/07 09:03:18;;;;;;;16.05;10.27;;;7.60;99.90;;;;;;5027713;28;20049;-81
2022/12/07 09:05:45;;;;;;;17.73;9.85;;;7.60;99.90;;;;;;5006970;28;20077;-81
2022/12/07 09:08:13;;;;;;;17.23;10.27;;;7.60;99.90;;;;;;5018141;28;20048;-79
2022/12/07 09:10:40;;;;;;;16.95;9.75;;;7.60;99.90;;;;;;5012573;28;20057;-81
2022/12/07 09:13:07;;;;;;;19.60;9.98;;;7.60;99.90;;;;;;5011757;28;20080;-81
2022/12/07 09:15:34;;;;;;;15.45;9.98;;;7.60;99.90;;;;;;5028165;28;20514;-81
2022/12/07 09:18:01;;;;;;;21.60;11.00;;;7.60;99.90;;;;;;5022415;28;20041;-81
2022/12/07 09:20:28;;;;;;;18.13;10.10;;;7.70;99.90;;;;;;5030238;28;20051;-81
2022/12/07 09:22:55;;;;;;;20.83;10.80;;;7.70;99.90;;;;;;5031586;28;20050;-81
2022/12/07 09:25:23;;;;;;;20.13;10.63;;;7.70;99.90;;;;;;5029660;28;20048;-84
2022/12/07 09:27:56;;;;;;;16.05;10.20;;;7.70;99.90;;;;;;5040597;28;20038;-85
2022/12/07 09:30:30;;;;;;;20.73;11.55;;;7.70;99.90;;;;;;5033536;28;20414;-84
2022/12/07 09:32:57;;;;;;;20.58;11.38;;;7.70;99.90;;;;;;5027852;28;20060;-84
2022/12/07 09:35:25;;;;;;;23.17;11.82;;;7.70;99.90;;;;;;5031824;28;20056;-84
2022/12/07 09:37:55;;;;;;;18.88;11.15;;;7.70;99.90;;;;;;5037271;28;20033;-84
2022/12/07 09:40:24;;;;;;;26.15;12.63;;;7.70;99.90;;;;;;5020257;28;20049;-81
2022/12/07 09:42:53;;;;;;;20.77;11.32;;;7.80;99.90;;;;;;5031869;28;20044;-80
2022/12/07 09:45:23;;;;;;;21.45;11.52;;;7.80;99.90;;;;;;5026305;28;20069;-80
2022/12/07 09:47:50;;;;;;;22.15;11.02;;;7.80;99.90;;;;;;5024315;28;20041;-80
2022/12/07 09:50:20;;;;;;;20.55;11.02;;;7.80;99.90;;;;;;5032233;28;20059;-80
2022/12/07 09:52:48;;;;;;;25.63;10.63;;;7.80;99.90;;;;;;5029790;28;20053;-80
2022/12/07 09:55:18;;;;;;;20.10;10.40;;;7.80;99.90;;;;;;5025399;28;20077;-80
2022/12/07 09:57:46;;;;;;;22.55;10.73;;;7.80;99.90;;;;;;5032425;28;20041;-80
2022/12/07 10:00:17;;;;;;;15.40;9.30;;;7.80;99.90;;;;;;5026752;28;20033;-80
2022/12/07 10:02:45;;;;;;;;;;;7.80;99.90;;;;;;5027408;28;20069;-80
2022/12/07 10:05:15;;;;;;;20.67;9.05;;;7.80;99.90;;;;;;5016440;28;19944;-80
2022/12/07 10:07:42;;;;;;;19.38;9.48;;;7.90;99.90;;;;;;5033527;28;20043;-80
2022/12/07 10:10:16;;;;;;;18.55;8.88;;;7.90;99.90;;;;;;5047612;28;20044;-80
2022/12/07 10:13:03;;;;;;;19.23;9.45;;;7.90;99.90;;;;;;5050881;28;20025;-81
2022/12/07 10:15:52;;;;;;;17.83;8.85;;;7.90;99.90;;;;;;5048056;28;20036;-81
2022/12/07 10:18:27;;;;;;;18.75;8.95;;;7.90;99.90;;;;;;5037311;28;20039;-82
2022/12/07 10:21:12;;;;;;;23.88;9.25;;;7.90;99.90;;;;;;5018211;28;20096;-81
2022/12/07 10:23:40;;;;;;;17.25;8.88;;;8.00;99.90;;;;;;5015205;28;20498;-79
2022/12/07 10:26:30;;;;;;;17.02;8.40;;;7.90;99.90;;;;;;5022990;28;20081;-79
2022/12/07 10:29:00;;;;;;;16.60;8.02;;;8.00;99.90;;;;;;5016225;28;20074;-79
2022/12/07 10:31:27;;;;;;;18.08;7.90;;;8.00;99.90;;;;;;5033685;28;20135;-79
2022/12/07 10:33:56;;;;;;;21.52;8.88;;;8.10;99.90;;;;;;5041840;28;20046;-79
2022/12/07 10:36:26;;;;;;;17.00;8.32;;;8.10;99.90;;;;;;5032020;28;20037;-80
2022/12/07 10:38:54;;;;;;;19.25;7.88;;;8.10;99.90;;;;;;5027262;28;20033;-80
2022/12/07 10:41:21;;;;;;;15.93;8.23;;;8.20;99.90;;;;;;5037299;28;20049;-80
2022/12/07 10:43:50;;;;;;;16.80;7.25;;;8.20;99.90;;;;;;5021560;28;20069;-79
2022/12/07 10:46:44;;;;;;;13.88;7.32;;;8.30;99.90;;;;;;5015400;28;20103;-80
2022/12/07 10:49:41;;;;;;;18.98;7.90;;;8.30;99.90;;;;;;5028541;28;20056;-78
2022/12/07 10:52:12;;;;;;;16.08;7.82;;;8.20;99.90;;;;;;5029470;28;20099;-78
2022/12/07 10:54:46;;;;;;;19.80;7.50;;;8.30;99.90;;;;;;5033194;28;20037;-82
2022/12/07 10:57:27;;;;;;;13.23;6.72;;;8.30;99.90;;;;;;5023503;28;20063;-84
2022/12/07 11:00:02;;;;;;;16.08;7.00;;;8.30;99.90;;;;;;5014020;28;20041;-84
2022/12/07 11:02:44;;;;;;;17.30;6.63;;;8.30;99.90;;;;;;5025055;28;20045;-83
2022/12/07 11:05:19;;;;;;;22.05;7.70;;;8.30;99.90;;;;;;5028025;28;20527;-84
2022/12/07 11:07:53;;;;;;;17.48;6.90;;;8.40;99.90;;;;;;5009396;28;20564;-84
2022/12/07 11:10:24;;;;;;;14.60;6.22;;;8.40;99.90;;;;;;5037478;28;20073;-85
2022/12/07 11:13:11;;;;;;;13.40;6.53;;;8.40;99.90;;;;;;5027632;28;20048;-83
2022/12/07 11:15:49;;;;;;;16.45;6.90;;;8.40;99.90;;;;;;5017645;28;20509;-84
2022/12/07 11:18:24;;;;;;;15.32;6.88;;;8.40;99.90;;;;;;5025156;28;20110;-83
2022/12/07 11:20:57;;;;;;;15.25;5.80;;;8.40;99.90;;;;;;5026965;28;20502;-83
2022/12/07 11:23:31;;;;;;;22.30;6.90;;;8.30;99.90;;;;;;5030583;28;20042;-85
2022/12/07 11:26:03;;;;;;;16.45;6.97;;;8.40;99.90;;;;;;5028254;28;20108;-84
2022/12/07 11:28:41;;;;;;;19.05;7.25;;;8.40;99.90;;;;;;5032437;28;20116;-84
2022/12/07 11:31:14;;;;;;;20.63;6.97;;;8.40;99.90;;;;;;5014827;28;20533;-80
2022/12/07 11:33:46;;;;;;;21.83;7.32;;;8.50;99.90;;;;;;5024034;28;20417;-83
2022/12/07 11:36:25;;;;;;;13.80;7.75;;;8.50;99.90;;;;;;5028431;28;20046;-86
2022/12/07 11:38:55;;;;;;;21.10;8.32;;;8.50;99.90;;;;;;5037739;28;20063;-83
2022/12/07 11:41:26;;;;;;;15.73;8.18;;;8.50;99.90;;;;;;5027530;28;20128;-77
2022/12/07 11:43:56;;;;;;;20.23;8.60;;;8.50;99.90;;;;;;5018085;28;20037;-81
2022/12/07 11:46:27;;;;;;;16.85;7.53;;;8.40;99.90;;;;;;5031896;28;20559;-81
2022/12/07 11:49:02;;;;;;;16.08;7.20;;;8.50;99.90;;;;;;5023853;28;20048;-85
2022/12/07 11:51:31;;;;;;;13.80;8.13;;;8.50;99.90;;;;;;5014240;28;20038;-85
2022/12/07 11:54:01;;;;;;;15.40;7.63;;;8.50;99.90;;;;;;5001612;28;20402;-86
2022/12/07 11:56:29;;;;;;;14.95;7.43;;;8.50;99.90;;;;;;5030900;28;20532;-86
2022/12/07 11:58:58;;;;;;;15.75;7.32;;;8.50;99.90;;;;;;5026083;28;20044;-87
2022/12/07 12:01:33;;;;;;;17.73;7.10;;;8.50;99.90;;;;;;5029527;28;20049;-83
2022/12/07 12:04:08;;;;;;;17.95;8.05;;;8.50;99.90;;;;;;5022919;28;20045;-83
2022/12/07 12:06:35;;;;;;;14.82;6.88;;;8.60;99.90;;;;;;5020222;28;20049;-84
2022/12/07 12:09:06;;;;;;;13.02;6.35;;;8.60;99.90;;;;;;5024390;28;20044;-84
2022/12/07 12:11:47;;;;;;;16.10;6.40;;;8.60;99.90;;;;;;5030702;28;20051;-84
2022/12/07 12:14:36;;;;;;;13.15;6.43;;;8.60;99.90;;;;;;5036821;28;20044;-84
2022/12/07 12:17:15;;;;;;;14.70;6.30;;;8.60;99.90;;;;;;5024169;28;20582;-84
2022/12/07 12:19:46;;;;;;;14.43;5.90;;;8.60;99.90;;;;;;5025766;28;20045;-84
2022/12/07 12:22:16;;;;;;;13.60;6.10;;;8.60;99.90;;;;;;5011406;28;20051;-83
2022/12/07 12:24:44;;;;;;;9.98;5.72;;;8.60;99.90;;;;;;5033281;28;20112;-83
2022/12/07 12:27:19;;;;;;;12.70;5.80;;;8.60;99.90;;;;;;5039532;28;20052;-84
2022/12/07 12:29:54;;;;;;;19.27;5.57;;;8.60;99.90;;;;;;5024089;28;20065;-84
2022/12/07 12:32:22;;;;;;;16.75;5.03;;;8.60;99.90;;;;;;5022994;28;20041;-83
2022/12/07 12:35:03;;;;;;;11.75;5.45;;;8.60;99.90;;;;;;5025668;28;20042;-83
2022/12/07 12:37:46;;;;;;;15.73;5.07;;;8.60;99.90;;;;;;5033173;28;20448;-83
2022/12/07 12:40:40;;;;;;;15.05;4.82;;;8.60;99.90;;;;;;4999009;28;20049;-83
2022/12/07 12:43:44;;;;;;;13.88;5.55;;;8.60;99.90;;;;;;5017965;28;20042;-84
2022/12/07 12:46:38;;;;;;;13.45;4.55;;;8.70;99.90;;;;;;5021384;28;20049;-84
2022/12/07 12:49:45;;;;;;;11.77;4.35;;;8.60;99.90;;;;;;5014108;28;20276;-84
2022/12/07 12:52:57;;;;;;;15.25;4.60;;;8.60;99.90;;;;;;4995009;28;20053;-84
2022/12/07 13:03:05;;;;;;;14.02;4.50;;;8.70;99.90;;;;;;4979682;28;20048;-87
2022/12/07 13:05:32;;;;;;;15.90;4.60;;;8.70;99.90;;;;;;5021640;28;20051;-82
2022/12/07 13:08:03;;;;;;;13.10;4.78;;;8.80;99.90;;;;;;5019305;28;20116;-87